Time;durP1;ratioP1;P1;durP2;ratioP2;P2;SDS_P1;SDS_P2;PMS_P1;PMS_P2;Temp;Humidity;BMP_temperature;BMP_pressure;BME280_temperature;BME280_humidity;BME280_pressure;Samples;Min_cycle;Max_cycle;Signal;HPM_P1;HPM_P2
2023/06/25 00:01:17;;;;;;;24.25;16.65;;;18.60;99.90;;;;;;4981404;28;20225;-65
2023/06/25 00:03:44;;;;;;;21.08;13.80;;;18.70;99.90;;;;;;4954023;28;20208;-65
2023/06/25 00:06:11;;;;;;;16.55;12.38;;;;;;;;;;4966989;28;20318;-65
2023/06/25 00:08:38;;;;;;;16.98;11.88;;;18.60;99.90;;;;;;4977088;28;20218;-65
2023/06/25 00:11:05;;;;;;;15.45;12.35;;;18.30;99.90;;;;;;4953348;28;20213;-65
2023/06/25 00:13:32;;;;;;;18.55;12.02;;;18.40;99.90;;;;;;4986759;28;20195;-65
2023/06/25 00:15:59;;;;;;;16.83;11.68;;;18.30;99.90;;;;;;4978190;28;20774;-65
2023/06/25 00:18:27;;;;;;;15.68;12.13;;;18.10;99.90;;;;;;4965691;28;20217;-64
2023/06/25 00:20:54;;;;;;;15.50;11.60;;;18.10;99.90;;;;;;4968765;28;20231;-65
2023/06/25 00:23:21;;;;;;;14.68;11.93;;;18.10;99.90;;;;;;4970251;28;20234;-64
2023/06/25 00:25:47;;;;;;;19.50;12.27;;;18.10;99.90;;;;;;4953663;28;20214;-65
2023/06/25 00:28:15;;;;;;;16.63;12.18;;;18.10;99.90;;;;;;4981737;28;20660;-65
2023/06/25 00:30:41;;;;;;;16.98;12.93;;;18.10;99.90;;;;;;4970012;28;20730;-65
2023/06/25 00:33:08;;;;;;;18.00;13.48;;;18.00;99.90;;;;;;4969868;28;20198;-65
2023/06/25 00:36:06;;;;;;;19.60;13.65;;;18.00;99.90;;;;;;4961648;28;20663;-64
2023/06/25 00:38:33;;;;;;;17.73;12.57;;;18.10;99.90;;;;;;4967669;28;20439;-65
2023/06/25 00:41:00;;;;;;;18.52;12.60;;;18.10;99.90;;;;;;4949617;28;20301;-64
2023/06/25 00:43:27;;;;;;;18.35;14.45;;;18.10;99.90;;;;;;4979648;28;20202;-65
2023/06/25 00:45:53;;;;;;;22.88;13.63;;;18.10;99.90;;;;;;4980339;28;20200;-65
2023/06/25 00:48:21;;;;;;;16.30;13.10;;;18.20;99.90;;;;;;4964027;28;20209;-65
2023/06/25 00:50:48;;;;;;;21.67;15.10;;;17.90;99.90;;;;;;4949765;28;20211;-65
2023/06/25 00:53:17;;;;;;;20.58;15.43;;;17.90;99.90;;;;;;4966080;28;20204;-65
2023/06/25 00:55:50;;;;;;;23.60;15.27;;;17.90;99.90;;;;;;4951603;28;20222;-65
2023/06/25 00:58:20;;;;;;;21.38;14.07;;;17.90;99.90;;;;;;4980466;28;20284;-65
2023/06/25 01:00:48;;;;;;;22.25;14.63;;;17.20;99.90;;;;;;4980991;28;20595;-65
2023/06/25 01:03:26;;;;;;;17.65;14.07;;;17.80;99.90;;;;;;4955307;28;20661;-64
2023/06/25 01:06:00;;;;;;;21.70;14.20;;;17.80;99.90;;;;;;4961120;28;20207;-65
2023/06/25 01:08:29;;;;;;;17.92;13.90;;;17.70;99.90;;;;;;4958533;28;20224;-65
2023/06/25 01:10:57;;;;;;;24.67;14.55;;;17.80;99.90;;;;;;4954238;28;20289;-64
2023/06/25 01:13:23;;;;;;;19.38;14.88;;;17.80;99.90;;;;;;4980283;28;20203;-65
2023/06/25 01:15:50;;;;;;;23.00;15.45;;;17.70;99.90;;;;;;4979626;28;20231;-65
2023/06/25 01:18:17;;;;;;;24.15;15.23;;;17.60;99.90;;;;;;4967636;28;20199;-65
2023/06/25 01:20:44;;;;;;;19.85;15.27;;;17.60;99.90;;;;;;4964422;28;20220;-64
2023/06/25 01:23:13;;;;;;;20.55;14.55;;;17.60;99.90;;;;;;4951425;28;20207;-65
2023/06/25 01:25:40;;;;;;;21.60;15.30;;;17.60;99.90;;;;;;4985093;28;20200;-65
2023/06/25 01:28:07;;;;;;;21.20;14.80;;;17.60;99.90;;;;;;4955817;28;20793;-64
2023/06/25 01:30:34;;;;;;;20.35;14.30;;;;;;;;;;4985341;28;20210;-64
2023/06/25 01:33:07;;;;;;;21.75;15.48;;;;;;;;;;4981616;28;20212;-64
2023/06/25 01:35:39;;;;;;;23.13;14.45;;;;;;;;;;4978940;28;20286;-65
2023/06/25 01:38:06;;;;;;;21.55;15.43;;;;;;;;;;5138515;23;21236;-65
2023/06/25 01:40:35;;;;;;;22.15;15.68;;;17.60;99.90;;;;;;4966310;28;20600;-65
2023/06/25 01:43:03;;;;;;;23.20;16.02;;;17.60;99.90;;;;;;4973924;28;20387;-65
2023/06/25 01:45:30;;;;;;;22.95;16.40;;;17.60;99.90;;;;;;5010436;28;20206;-65
2023/06/25 01:48:03;;;;;;;21.65;15.95;;;17.60;99.90;;;;;;5010477;28;20299;-65
2023/06/25 01:50:30;;;;;;;21.40;15.27;;;17.80;99.90;;;;;;5001748;28;20294;-64
2023/06/25 01:53:01;;;;;;;25.58;16.15;;;;;;;;;;4989046;28;20205;-65
2023/06/25 01:55:32;;;;;;;22.42;16.67;;;;;;;;;;4996983;28;21089;-65
2023/06/25 01:58:01;;;;;;;21.83;16.48;;;17.40;99.90;;;;;;4957747;28;20545;-65
2023/06/25 02:00:28;;;;;;;19.65;16.02;;;17.40;99.90;;;;;;5005927;28;20943;-64
2023/06/25 02:02:57;;;;;;;19.95;15.52;;;;;;;;;;5006717;28;20320;-65
2023/06/25 02:05:26;;;;;;;23.67;16.30;;;17.40;99.90;;;;;;4985492;28;20210;-65
2023/06/25 02:07:54;;;;;;;15.82;13.40;;;;;;;;;;4985481;28;21254;-65
2023/06/25 02:10:25;;;;;;;19.52;13.88;;;;;;;;;;5008173;28;20199;-64
2023/06/25 02:12:58;;;;;;;20.20;13.90;;;17.30;99.90;;;;;;4970810;28;20314;-65
2023/06/25 02:15:29;;;;;;;19.00;14.15;;;17.30;99.90;;;;;;5009364;28;20667;-65
2023/06/25 02:17:57;;;;;;;19.25;14.23;;;;;;;;;;5006040;28;21029;-64
2023/06/25 02:20:26;;;;;;;13.38;10.48;;;17.30;99.90;;;;;;4999990;28;20793;-64
2023/06/25 02:22:55;;;;;;;11.48;8.88;;;16.60;99.90;;;;;;4955969;28;20865;-65
2023/06/25 02:25:25;;;;;;;12.60;9.40;;;17.30;99.90;;;;;;5008735;28;20206;-64
2023/06/25 02:27:55;;;;;;;11.15;10.15;;;;;;;;;;4967406;28;20975;-65
2023/06/25 02:30:26;;;;;;;12.88;11.57;;;17.40;99.90;;;;;;5003465;28;20249;-64
2023/06/25 02:32:58;;;;;;;12.45;11.25;;;17.30;99.90;;;;;;5008029;28;20796;-65
2023/06/25 02:35:26;;;;;;;12.23;10.93;;;;;;;;;;4994835;28;20676;-65
2023/06/25 02:37:53;;;;;;;11.30;10.20;;;;;;;;;;5016435;28;20356;-65
2023/06/25 02:40:22;;;;;;;11.43;10.32;;;17.30;99.90;;;;;;5007989;28;20658;-65
2023/06/25 02:42:49;;;;;;;11.60;10.40;;;;;;;;;;4983196;28;22784;-64
2023/06/25 02:45:17;;;;;;;11.65;10.55;;;;;;;;;;5026218;28;20330;-64
2023/06/25 02:47:48;;;;;;;11.88;10.70;;;;;;;;;;5025610;28;20298;-65
2023/06/25 02:50:16;;;;;;;11.40;10.30;;;;;;;;;;5027414;28;20338;-65
2023/06/25 02:52:44;;;;;;;12.02;10.00;;;17.20;99.90;;;;;;5005151;28;20495;-65
2023/06/25 02:55:11;;;;;;;11.82;9.25;;;;;;;;;;5006455;28;20891;-65
2023/06/25 02:57:47;;;;;;;14.68;9.50;;;17.00;99.90;;;;;;5012544;28;20214;-65
2023/06/25 03:00:22;;;;;;;13.35;9.57;;;16.90;99.90;;;;;;4988500;28;20243;-65
2023/06/25 03:02:53;;;;;;;9.52;8.52;;;16.90;99.90;;;;;;5030338;28;20228;-65
2023/06/25 03:05:21;;;;;;;10.40;9.05;;;;;;;;;;5017981;28;20278;-65
2023/06/25 03:07:52;;;;;;;10.27;9.27;;;;;;;;;;5017332;28;21086;-65
2023/06/25 03:10:21;;;;;;;10.80;9.68;;;16.90;99.90;;;;;;5003918;28;20867;-64
2023/06/25 03:12:49;;;;;;;13.48;10.38;;;;;;;;;;5014917;28;20812;-65
2023/06/25 03:15:19;;;;;;;10.32;9.25;;;17.00;99.90;;;;;;4994175;28;20323;-65
2023/06/25 03:17:47;;;;;;;12.68;10.52;;;;;;;;;;5028220;28;20201;-65
2023/06/25 03:20:16;;;;;;;11.25;9.82;;;;;;;;;;5015963;28;20221;-64
2023/06/25 03:22:43;;;;;;;11.85;9.80;;;;;;;;;;5015003;28;20212;-65
2023/06/25 03:25:12;;;;;;;11.45;10.25;;;17.10;99.90;;;;;;5007694;28;20212;-65
2023/06/25 03:27:39;;;;;;;10.45;8.98;;;;;;;;;;5012859;28;20596;-65
2023/06/25 03:30:08;;;;;;;11.30;8.88;;;17.10;99.90;;;;;;5001078;28;20664;-65
2023/06/25 03:32:36;;;;;;;13.68;9.13;;;17.10;99.90;;;;;;5026449;28;20194;-65
2023/06/25 03:35:03;;;;;;;12.07;8.98;;;17.20;99.90;;;;;;5015345;28;20210;-65
2023/06/25 03:37:32;;;;;;;12.65;9.13;;;17.20;99.90;;;;;;5016736;28;20236;-65
2023/06/25 03:40:00;;;;;;;14.38;8.82;;;;;;;;;;5028747;28;20734;-65
2023/06/25 03:42:27;;;;;;;11.70;8.25;;;;;;;;;;4989843;28;20204;-65
2023/06/25 03:44:55;;;;;;;10.90;8.80;;;17.10;99.90;;;;;;4993382;28;20256;-65
2023/06/25 03:47:23;;;;;;;11.40;9.48;;;;;;;;;;5008341;28;20654;-65
2023/06/25 03:49:54;;;;;;;13.02;9.70;;;;;;;;;;5013515;28;20213;-65
2023/06/25 03:52:21;;;;;;;12.52;10.55;;;;;;;;;;5029095;28;20201;-65
2023/06/25 03:54:50;;;;;;;12.63;10.13;;;;;;;;;;5021662;28;20658;-65
2023/06/25 03:57:22;;;;;;;15.63;9.52;;;;;;;;;;5006867;28;20203;-65
2023/06/25 03:59:49;;;;;;;12.90;7.82;;;16.90;99.90;;;;;;4985302;28;20807;-65
2023/06/25 04:02:17;;;;;;;12.38;8.68;;;;;;;;;;5011514;28;20221;-64
2023/06/25 04:04:44;;;;;;;15.02;9.38;;;;;;;;;;5019124;28;20255;-64
2023/06/25 04:07:12;;;;;;;11.63;9.98;;;;;;;;;;5025459;28;20212;-64
2023/06/25 04:09:40;;;;;;;17.90;9.93;;;17.10;99.90;;;;;;5015113;28;20204;-64
2023/06/25 04:12:13;;;;;;;17.80;11.45;;;17.00;99.90;;;;;;5000378;28;20240;-65
2023/06/25 04:14:41;;;;;;;19.50;12.52;;;;;;;;;;4981996;28;20216;-64
2023/06/25 04:17:11;;;;;;;17.63;12.63;;;17.30;99.90;;;;;;5011586;28;20219;-65
2023/06/25 04:19:42;;;;;;;23.33;14.70;;;17.30;99.90;;;;;;5022215;28;20233;-65
2023/06/25 04:22:09;;;;;;;19.25;14.52;;;;;;;;;;5018298;28;20705;-65
2023/06/25 04:24:39;;;;;;;19.55;14.38;;;;;;;;;;5015299;28;20253;-65
2023/06/25 04:27:07;;;;;;;21.60;14.05;;;;;;;;;;5002546;28;20198;-65
2023/06/25 04:29:51;;;;;;;23.83;14.80;;;17.50;99.90;;;;;;5006583;28;20258;-65
2023/06/25 04:32:18;;;;;;;23.98;14.00;;;17.50;99.90;;;;;;5024371;28;20217;-64
2023/06/25 04:34:48;;;;;;;19.40;13.43;;;17.50;99.90;;;;;;5027161;28;21043;-65
2023/06/25 04:37:16;;;;;;;21.88;14.70;;;17.60;99.90;;;;;;5010468;28;20364;-65
2023/06/25 04:39:50;;;;;;;19.95;14.88;;;17.70;99.90;;;;;;5015410;28;20209;-65
2023/06/25 04:42:20;;;;;;;20.27;15.20;;;17.60;99.90;;;;;;5000551;28;20221;-65
2023/06/25 04:44:49;;;;;;;23.95;15.20;;;;;;;;;;4996108;28;20419;-65
2023/06/25 04:47:16;;;;;;;20.38;14.30;;;;;;;;;;5000490;28;20213;-65
2023/06/25 04:49:47;;;;;;;21.83;14.85;;;17.80;99.90;;;;;;5012743;28;20237;-65
2023/06/25 04:52:18;;;;;;;20.73;13.68;;;;;;;;;;5013599;28;20207;-65
2023/06/25 04:54:49;;;;;;;21.05;15.90;;;15.90;99.90;;;;;;5014232;28;20654;-65
2023/06/25 04:57:16;;;;;;;20.38;14.88;;;18.20;99.90;;;;;;5026869;28;20214;-65
2023/06/25 04:59:43;;;;;;;24.85;15.05;;;18.20;99.90;;;;;;5004778;28;20209;-65
2023/06/25 05:02:12;;;;;;;22.95;14.45;;;;;;;;;;4984887;28;20229;-65
2023/06/25 05:04:40;;;;;;;21.25;14.38;;;18.30;99.90;;;;;;5014142;28;20197;-65
2023/06/25 05:07:08;;;;;;;24.35;15.23;;;18.40;99.90;;;;;;5010773;28;20303;-65
2023/06/25 05:09:36;;;;;;;27.77;14.43;;;18.50;99.90;;;;;;5034181;28;20198;-65
2023/06/25 05:12:06;;;;;;;18.55;13.07;;;;;;;;;;5023287;28;20913;-65
2023/06/25 05:14:35;;;;;;;21.10;12.90;;;18.60;99.90;;;;;;5006083;28;20216;-65
2023/06/25 05:17:05;;;;;;;19.08;12.90;;;18.70;99.90;;;;;;5010403;28;20297;-65
2023/06/25 05:19:34;;;;;;;15.88;11.35;;;18.70;99.90;;;;;;4983700;28;20731;-65
2023/06/25 05:22:06;;;;;;;18.63;10.57;;;18.70;99.90;;;;;;5019132;28;20454;-65
2023/06/25 05:24:33;;;;;;;14.90;10.55;;;;;;;;;;5011306;28;20955;-65
2023/06/25 05:27:01;;;;;;;14.90;10.63;;;;;;;;;;5015010;28;21463;-65
2023/06/25 05:29:29;;;;;;;15.73;11.07;;;18.90;99.90;;;;;;5006693;28;20205;-65
2023/06/25 05:31:58;;;;;;;12.93;9.32;;;18.90;99.90;;;;;;5011950;28;20965;-65
2023/06/25 05:34:27;;;;;;;16.27;9.68;;;19.00;99.90;;;;;;5000340;28;20202;-65
2023/06/25 05:36:57;;;;;;;11.93;8.63;;;;;;;;;;5028194;28;20789;-65
2023/06/25 05:39:28;;;;;;;12.48;9.20;;;;;;;;;;5022812;28;20236;-65
2023/06/25 05:41:56;;;;;;;14.77;9.57;;;;;;;;;;4996568;28;20327;-65
2023/06/25 05:44:29;;;;;;;12.60;8.32;;;19.20;99.90;;;;;;5003848;28;21735;-65
2023/06/25 05:46:58;;;;;;;10.70;8.00;;;19.20;99.90;;;;;;5007088;28;20589;-65
2023/06/25 05:49:26;;;;;;;10.43;7.88;;;;;;;;;;4994080;28;20889;-65
2023/06/25 05:51:59;;;;;;;8.85;7.20;;;19.40;99.90;;;;;;5025910;28;20765;-65
2023/06/25 05:54:26;;;;;;;10.25;6.93;;;19.40;99.90;;;;;;5014168;28;20205;-65
2023/06/25 05:56:54;;;;;;;11.95;7.72;;;19.40;99.90;;;;;;5011804;28;20227;-65
2023/06/25 05:59:24;;;;;;;9.30;7.38;;;19.50;99.90;;;;;;5030476;28;20216;-65
2023/06/25 06:01:52;;;;;;;11.77;7.55;;;;;;;;;;5008357;28;20228;-65
2023/06/25 06:04:19;;;;;;;15.40;7.28;;;19.60;99.90;;;;;;4994883;28;20621;-65
2023/06/25 06:06:47;;;;;;;7.97;6.82;;;19.70;99.90;;;;;;5026615;28;20210;-65
2023/06/25 06:09:19;;;;;;;8.77;6.65;;;19.70;99.90;;;;;;5015670;28;20221;-65
2023/06/25 06:11:46;;;;;;;9.75;7.57;;;;;;;;;;5012602;28;20206;-65
2023/06/25 06:14:14;;;;;;;11.63;7.38;;;;;;;;;;5027709;28;20674;-65
2023/06/25 06:16:49;;;;;;;11.40;7.15;;;20.00;99.90;;;;;;5003391;28;20217;-65
2023/06/25 06:19:19;;;;;;;7.82;6.63;;;;;;;;;;4992460;28;20202;-66
2023/06/25 06:21:48;;;;;;;10.98;6.72;;;;;;;;;;5025734;28;20225;-65
2023/06/25 06:24:20;;;;;;;8.50;6.93;;;20.20;99.90;;;;;;5011089;28;20317;-65
2023/06/25 06:26:48;;;;;;;9.43;7.22;;;;;;;;;;5009595;28;20220;-65
2023/06/25 06:29:19;;;;;;;9.63;7.07;;;20.30;99.90;;;;;;5028743;28;20512;-65
2023/06/25 06:31:48;;;;;;;8.93;6.53;;;20.30;99.90;;;;;;4976786;28;20391;-65
2023/06/25 06:34:16;;;;;;;10.10;6.53;;;;;;;;;;4996056;28;20206;-65
2023/06/25 06:36:51;;;;;;;8.57;6.78;;;20.50;99.90;;;;;;4998452;28;20683;-65
2023/06/25 06:39:21;;;;;;;7.35;6.05;;;20.50;99.90;;;;;;5005848;28;20799;-65
2023/06/25 06:41:50;;;;;;;7.28;6.03;;;20.60;99.90;;;;;;4981128;28;21130;-65
2023/06/25 06:44:18;;;;;;;9.75;6.95;;;20.60;99.90;;;;;;5003128;28;20864;-65
2023/06/25 06:46:47;;;;;;;11.10;6.43;;;20.70;99.90;;;;;;4979434;28;20201;-65
2023/06/25 06:49:16;;;;;;;9.27;5.93;;;;;;;;;;4969399;28;20214;-65
2023/06/25 06:51:44;;;;;;;9.98;6.57;;;;;;;;;;5006203;28;20198;-65
2023/06/25 06:54:11;;;;;;;10.70;6.43;;;20.80;99.90;;;;;;4992388;28;20462;-65
2023/06/25 06:56:40;;;;;;;9.25;6.18;;;20.90;99.90;;;;;;4993494;28;20251;-65
2023/06/25 06:59:07;;;;;;;10.32;6.68;;;20.90;99.90;;;;;;4987752;28;20656;-65
2023/06/25 07:01:35;;;;;;;8.95;5.35;;;;;;;;;;4946786;28;20741;-65
2023/06/25 07:04:04;;;;;;;6.75;5.47;;;;;;;;;;5004198;28;20207;-66
2023/06/25 07:06:32;;;;;;;6.05;5.13;;;21.10;99.90;;;;;;4958881;28;20210;-65
2023/06/25 07:09:01;;;;;;;8.25;5.55;;;;;;;;;;4971039;28;20773;-65
2023/06/25 07:11:28;;;;;;;6.55;5.10;;;21.20;99.90;;;;;;4984911;28;20206;-65
2023/06/25 07:13:57;;;;;;;7.10;5.25;;;;;;;;;;4986088;28;20616;-65
2023/06/25 07:16:25;;;;;;;6.63;5.32;;;;;;;;;;4979239;23;20226;-65
2023/06/25 07:18:58;;;;;;;6.00;5.13;;;21.30;99.90;;;;;;4988776;28;21103;-65
2023/06/25 07:21:25;;;;;;;5.63;4.90;;;21.50;99.90;;;;;;4968819;28;20730;-65
2023/06/25 07:23:53;;;;;;;7.95;5.60;;;21.50;99.90;;;;;;4986139;28;20571;-65
2023/06/25 07:26:20;;;;;;;6.50;5.60;;;21.50;99.90;;;;;;4992812;28;20202;-65
2023/06/25 07:28:48;;;;;;;7.25;5.10;;;;;;;;;;5008458;28;20219;-65
2023/06/25 07:31:17;;;;;;;7.43;4.93;;;21.70;99.90;;;;;;4973497;28;20328;-65
2023/06/25 07:33:44;;;;;;;6.43;5.18;;;21.70;99.90;;;;;;5000153;28;20205;-65
2023/06/25 07:36:12;;;;;;;8.48;5.75;;;21.80;99.90;;;;;;4955120;28;20214;-65
2023/06/25 07:38:39;;;;;;;6.38;5.45;;;21.80;99.90;;;;;;4995478;28;20206;-65
2023/06/25 07:41:06;;;;;;;6.57;5.00;;;21.90;99.90;;;;;;4990459;28;21247;-65
2023/06/25 07:43:34;;;;;;;6.95;5.72;;;;;;;;;;4991877;28;20259;-65
2023/06/25 07:46:06;;;;;;;8.20;5.25;;;21.90;99.90;;;;;;4988590;28;20668;-65
2023/06/25 07:48:36;;;;;;;6.38;5.50;;;22.00;99.90;;;;;;4996796;28;20209;-65
2023/06/25 07:51:06;;;;;;;6.60;5.13;;;22.00;99.90;;;;;;4981618;28;20206;-65
2023/06/25 07:56:25;;;;;;;5.97;5.07;;;22.00;99.90;;;;;;4989977;28;20202;-65
2023/06/25 07:58:56;;;;;;;10.13;5.07;;;22.10;99.90;;;;;;4994961;28;21009;-65
2023/06/25 08:01:29;;;;;;;6.10;5.38;;;22.20;99.90;;;;;;4996611;28;20206;-65
2023/06/25 08:03:58;;;;;;;6.97;5.32;;;;;;;;;;4971793;28;20665;-65
2023/06/25 08:06:46;;;;;;;7.72;5.30;;;22.20;99.90;;;;;;4999292;28;20252;-65
2023/06/25 08:09:14;;;;;;;4.85;4.43;;;;;;;;;;5000235;28;20237;-65
2023/06/25 08:11:43;;;;;;;8.60;5.47;;;22.30;99.90;;;;;;4986933;28;20218;-65
2023/06/25 08:14:11;;;;;;;7.53;5.35;;;22.30;99.90;;;;;;4987691;28;20276;-65
2023/06/25 08:16:39;;;;;;;8.55;5.22;;;;;;;;;;5001667;28;20284;-65
2023/06/25 08:19:07;;;;;;;6.53;4.95;;;22.50;99.90;;;;;;4968623;28;20210;-65
2023/06/25 08:21:36;;;;;;;7.68;5.70;;;22.50;99.90;;;;;;5001968;28;20294;-65
2023/06/25 08:24:04;;;;;;;9.02;5.88;;;;;;;;;;4964985;28;20233;-65
2023/06/25 08:26:35;;;;;;;7.03;5.63;;;22.50;99.90;;;;;;4990844;28;20280;-65
2023/06/25 08:29:04;;;;;;;11.02;5.93;;;22.60;99.90;;;;;;4991517;28;20221;-65
2023/06/25 08:31:31;;;;;;;6.97;5.38;;;;;;;;;;5002019;28;20820;-66
2023/06/25 08:34:00;;;;;;;5.97;5.07;;;22.70;99.90;;;;;;4977073;28;25112;-65
2023/06/25 08:36:30;;;;;;;7.35;5.05;;;;;;;;;;4979166;28;20228;-65
2023/06/25 08:38:57;;;;;;;8.00;5.28;;;22.70;99.90;;;;;;4965958;28;20210;-65
2023/06/25 08:41:26;;;;;;;7.75;4.38;;;22.80;99.90;;;;;;4972355;28;20213;-66
2023/06/25 08:43:53;;;;;;;7.65;5.22;;;23.00;99.90;;;;;;4975400;28;20281;-65
2023/06/25 08:46:23;;;;;;;8.13;5.47;;;23.00;99.90;;;;;;4986999;28;20225;-65
2023/06/25 08:48:54;;;;;;;9.82;4.97;;;23.10;99.90;;;;;;4986091;28;21785;-65
2023/06/25 08:51:29;;;;;;;7.95;5.13;;;23.10;99.90;;;;;;4973646;28;20499;-65
2023/06/25 08:53:57;;;;;;;7.65;5.75;;;;;;;;;;4923975;28;20399;-65
2023/06/25 08:56:25;;;;;;;8.85;5.60;;;23.10;99.90;;;;;;4982161;28;20324;-65
2023/06/25 08:58:52;;;;;;;8.13;5.53;;;;;;;;;;4986502;28;20233;-65
2023/06/25 09:01:20;;;;;;;8.07;5.40;;;;;;;;;;4970466;28;20230;-65
2023/06/25 09:03:50;;;;;;;8.50;5.50;;;23.30;99.90;;;;;;4989341;28;20237;-65
2023/06/25 09:06:21;;;;;;;8.43;5.57;;;23.30;99.90;;;;;;4968988;28;20202;-65
2023/06/25 09:11:32;;;;;;;6.88;4.82;;;23.40;99.90;;;;;;5235393;23;20244;-64
2023/06/25 09:14:02;;;;;;;8.82;5.28;;;;;;;;;;4973122;28;21103;-65
2023/06/25 09:16:34;;;;;;;7.13;5.38;;;23.40;99.90;;;;;;4953711;28;20660;-65
2023/06/25 09:19:06;;;;;;;7.95;6.07;;;23.50;99.90;;;;;;4993841;28;20197;-65
2023/06/25 09:21:40;;;;;;;8.98;5.57;;;23.60;99.90;;;;;;4977710;28;20356;-65
2023/06/25 09:24:17;;;;;;;8.70;5.95;;;;;;;;;;4999612;28;20754;-65
2023/06/25 09:26:50;;;;;;;9.77;5.78;;;23.90;99.90;;;;;;5202837;22;20233;-65
2023/06/25 09:29:20;;;;;;;5.50;4.88;;;24.00;99.90;;;;;;4967291;28;20912;-65
2023/06/25 09:31:51;;;;;;;7.15;5.88;;;24.00;99.90;;;;;;4967479;28;20287;-65
2023/06/25 09:34:19;;;;;;;7.38;5.55;;;24.10;99.90;;;;;;4997238;28;20292;-65
2023/06/25 09:36:47;;;;;;;7.03;5.30;;;24.10;99.90;;;;;;4988065;28;20422;-65
2023/06/25 09:39:15;;;;;;;5.97;5.38;;;24.10;99.90;;;;;;5001434;28;20651;-65
2023/06/25 09:41:45;;;;;;;6.60;5.63;;;24.10;99.90;;;;;;4980144;28;20206;-66
2023/06/25 09:44:18;;;;;;;6.57;5.55;;;24.20;99.90;;;;;;4955310;28;20229;-65
2023/06/25 09:46:48;;;;;;;5.93;5.32;;;24.20;99.90;;;;;;4976812;28;20226;-65
2023/06/25 09:49:19;;;;;;;8.00;5.93;;;24.20;99.90;;;;;;4987320;28;20206;-65
2023/06/25 09:51:52;;;;;;;6.75;5.88;;;24.30;99.90;;;;;;4963609;28;20814;-65
2023/06/25 09:54:24;;;;;;;7.43;5.88;;;24.30;99.90;;;;;;5003798;28;21881;-65
2023/06/25 09:56:53;;;;;;;7.03;5.32;;;24.40;99.90;;;;;;4952950;28;20225;-65
2023/06/25 09:59:24;;;;;;;7.80;6.20;;;24.60;99.90;;;;;;4973097;28;20209;-65
2023/06/25 10:01:55;;;;;;;6.88;5.70;;;25.10;99.90;;;;;;4975803;28;20735;-65
2023/06/25 10:04:24;;;;;;;6.40;5.40;;;24.80;99.90;;;;;;4983795;28;20246;-65
2023/06/25 10:06:52;;;;;;;10.35;5.88;;;24.90;99.90;;;;;;4983478;28;20202;-65
2023/06/25 10:09:19;;;;;;;7.05;5.93;;;25.00;99.90;;;;;;4969472;28;20273;-66
2023/06/25 10:11:51;;;;;;;6.05;5.38;;;25.00;99.90;;;;;;4944998;28;20708;-66
2023/06/25 10:14:18;;;;;;;9.80;5.20;;;25.00;99.90;;;;;;4948845;28;20222;-65
2023/06/25 10:16:56;;;;;;;5.95;5.35;;;25.10;99.90;;;;;;4980246;28;20264;-66
2023/06/25 10:19:27;;;;;;;7.75;5.57;;;25.10;99.90;;;;;;4959091;28;20533;-66
2023/06/25 10:22:12;;;;;;;5.15;4.57;;;25.10;99.90;;;;;;4985814;28;20226;-66
2023/06/25 10:24:43;;;;;;;5.70;5.10;;;25.20;99.90;;;;;;4988134;28;20234;-66
2023/06/25 10:27:28;;;;;;;6.28;5.68;;;25.20;99.90;;;;;;4975608;28;20314;-66
2023/06/25 10:29:56;;;;;;;7.60;5.50;;;;;;;;;;4980303;28;20202;-66
2023/06/25 10:32:25;;;;;;;5.70;4.68;;;;;;;;;;4960931;28;20697;-65
2023/06/25 10:34:53;;;;;;;7.15;4.97;;;25.20;99.90;;;;;;4976635;28;20317;-66
2023/06/25 10:37:21;;;;;;;5.45;4.90;;;25.20;99.90;;;;;;4995212;28;20201;-65
2023/06/25 10:39:50;;;;;;;6.72;5.85;;;25.30;99.90;;;;;;4969815;28;20238;-66
2023/06/25 10:42:18;;;;;;;6.07;5.47;;;25.30;99.90;;;;;;4989123;28;20218;-66
2023/06/25 10:44:46;;;;;;;5.97;5.25;;;25.30;99.90;;;;;;4966591;28;20202;-65
2023/06/25 10:47:14;;;;;;;5.55;4.78;;;25.40;99.90;;;;;;4959633;28;20230;-66
2023/06/25 10:49:44;;;;;;;6.15;5.55;;;25.50;99.90;;;;;;4968928;28;20959;-66
2023/06/25 10:52:11;;;;;;;6.22;5.63;;;25.50;99.90;;;;;;4978236;28;20206;-65
2023/06/25 10:54:39;;;;;;;5.35;4.80;;;25.60;99.90;;;;;;4965650;28;20320;-65
2023/06/25 10:57:07;;;;;;;7.10;5.80;;;25.60;99.90;;;;;;4989353;28;20292;-65
2023/06/25 10:59:37;;;;;;;6.72;4.75;;;24.80;99.90;;;;;;4954760;28;20343;-65
2023/06/25 11:02:13;;;;;;;7.10;5.70;;;25.70;99.90;;;;;;4962711;28;24202;-65
2023/06/25 11:04:52;;;;;;;5.75;4.97;;;25.70;99.90;;;;;;4997236;28;20265;-65
2023/06/25 11:07:23;;;;;;;5.57;4.95;;;25.80;99.90;;;;;;4978956;28;20210;-65
2023/06/25 11:09:53;;;;;;;6.15;4.53;;;25.80;99.90;;;;;;4974066;28;20295;-66
2023/06/25 11:12:20;;;;;;;5.57;5.07;;;;;;;;;;4988603;28;20308;-66
2023/06/25 11:14:54;;;;;;;8.20;5.63;;;25.70;99.90;;;;;;4963885;28;20210;-66
2023/06/25 11:17:24;;;;;;;6.05;5.45;;;25.70;99.90;;;;;;4973554;28;20479;-66
2023/06/25 11:19:53;;;;;;;5.20;4.70;;;;;;;;;;4988056;28;20233;-65
2023/06/25 11:22:21;;;;;;;6.22;5.13;;;25.90;99.90;;;;;;4978062;28;21379;-65
2023/06/25 11:24:52;;;;;;;6.10;4.97;;;;;;;;;;4964875;28;20328;-65
2023/06/25 11:27:25;;;;;;;5.72;4.60;;;;;;;;;;4975497;28;20226;-65
2023/06/25 11:30:04;;;;;;;5.07;4.57;;;26.00;99.90;;;;;;5281377;22;21937;-65
2023/06/25 11:32:31;;;;;;;5.18;4.28;;;;;;;;;;5020489;28;20591;-65
2023/06/25 11:35:01;;;;;;;5.53;4.85;;;26.00;99.90;;;;;;5024488;28;20818;-65
2023/06/25 11:37:28;;;;;;;4.85;4.40;;;26.00;99.90;;;;;;5012520;28;20750;-65
2023/06/25 11:39:56;;;;;;;4.47;4.05;;;;;;;;;;5003349;28;20940;-65
2023/06/25 11:42:25;;;;;;;4.97;4.43;;;26.00;99.90;;;;;;5216417;22;20234;-65
2023/06/25 11:45:07;;;;;;;5.60;4.35;;;26.70;99.90;;;;;;5020245;28;21138;-65
2023/06/25 11:47:39;;;;;;;6.53;4.63;;;26.20;99.90;;;;;;4997006;28;20197;-65
2023/06/25 11:50:11;;;;;;;5.07;4.57;;;;;;;;;;5038737;28;20202;-65
2023/06/25 11:52:39;;;;;;;5.43;4.93;;;26.20;99.90;;;;;;5002883;28;20342;-65
2023/06/25 11:55:08;;;;;;;7.80;4.55;;;26.20;99.90;;;;;;5012649;28;20243;-65
2023/06/25 11:57:36;;;;;;;6.18;4.88;;;26.30;99.90;;;;;;5036834;28;20296;-65
2023/06/25 12:00:04;;;;;;;5.25;4.50;;;26.40;99.90;;;;;;5019458;28;20732;-66
2023/06/25 12:02:34;;;;;;;5.47;4.60;;;26.30;99.90;;;;;;4991585;28;20204;-65
2023/06/25 12:05:02;;;;;;;12.52;4.78;;;;;;;;;;5034303;28;20240;-65
2023/06/25 12:07:33;;;;;;;4.93;4.43;;;;;;;;;;5030684;28;20197;-65
2023/06/25 12:10:00;;;;;;;11.65;4.55;;;26.20;99.90;;;;;;4990344;28;26360;-65
2023/06/25 12:12:28;;;;;;;4.93;4.45;;;26.20;99.90;;;;;;5032271;28;20216;-65
2023/06/25 12:14:55;;;;;;;4.63;4.22;;;26.10;99.90;;;;;;5031830;28;20290;-65
2023/06/25 12:17:23;;;;;;;5.25;4.50;;;;;;;;;;4984127;28;20219;-65
2023/06/25 12:19:50;;;;;;;4.45;4.03;;;;;;;;;;5010144;28;20200;-66
2023/06/25 12:22:19;;;;;;;4.70;4.30;;;26.20;99.90;;;;;;5031656;28;20418;-65
2023/06/25 12:24:51;;;;;;;10.93;4.75;;;;;;;;;;5013032;28;20232;-65
2023/06/25 12:27:18;;;;;;;6.03;4.70;;;26.30;99.90;;;;;;5005699;28;20357;-65
2023/06/25 12:29:46;;;;;;;6.00;4.20;;;26.30;99.90;;;;;;5043967;28;20197;-65
2023/06/25 12:32:19;;;;;;;5.28;4.30;;;26.50;99.90;;;;;;5002683;28;20205;-66
2023/06/25 12:34:46;;;;;;;4.68;4.00;;;26.50;99.90;;;;;;5023233;28;20208;-65
2023/06/25 12:37:13;;;;;;;6.18;4.18;;;;;;;;;;5038341;28;20197;-65
2023/06/25 12:39:44;;;;;;;4.72;4.20;;;26.60;99.90;;;;;;5022227;28;20212;-65
2023/06/25 12:42:12;;;;;;;4.35;3.95;;;;;;;;;;5013899;28;20235;-65
2023/06/25 12:44:40;;;;;;;4.60;4.00;;;26.50;99.90;;;;;;5040511;28;20297;-65
2023/06/25 12:47:07;;;;;;;5.05;4.55;;;26.60;99.90;;;;;;5024259;28;20221;-66
2023/06/25 12:49:34;;;;;;;5.10;4.45;;;26.60;99.90;;;;;;4970515;28;20320;-65
2023/06/25 12:52:01;;;;;;;5.45;4.40;;;26.60;99.90;;;;;;5035700;28;20205;-66
2023/06/25 12:54:29;;;;;;;5.85;4.65;;;26.60;99.90;;;;;;5028039;28;20275;-66
2023/06/25 12:56:59;;;;;;;5.35;4.05;;;26.60;99.90;;;;;;5012677;28;21279;-66
2023/06/25 12:59:28;;;;;;;5.22;4.70;;;;;;;;;;5037664;28;20212;-65
2023/06/25 13:01:58;;;;;;;6.38;4.05;;;26.70;99.90;;;;;;5024165;28;20329;-66
2023/06/25 13:04:25;;;;;;;4.07;3.78;;;26.70;99.90;;;;;;4987572;28;20689;-66
2023/06/25 13:06:52;;;;;;;3.90;3.55;;;26.80;99.90;;;;;;5037649;28;20419;-65
2023/06/25 13:09:20;;;;;;;6.78;4.40;;;;;;;;;;5037488;28;20252;-66
2023/06/25 13:11:53;;;;;;;5.28;4.50;;;26.80;99.90;;;;;;5018415;28;20912;-66
2023/06/25 13:14:20;;;;;;;5.18;4.20;;;26.90;99.90;;;;;;5016493;28;20654;-66
2023/06/25 13:16:52;;;;;;;5.35;4.32;;;;;;;;;;5038045;28;20231;-66
2023/06/25 13:19:22;;;;;;;5.63;4.60;;;26.80;99.90;;;;;;4991940;28;20198;-66
2023/06/25 13:21:49;;;;;;;4.78;4.30;;;26.80;99.90;;;;;;5039740;28;20293;-66
2023/06/25 13:24:16;;;;;;;6.78;4.55;;;26.70;99.90;;;;;;5044066;28;20631;-65
2023/06/25 13:26:44;;;;;;;4.60;4.20;;;26.80;99.90;;;;;;5014427;28;20640;-66